createdAt,value
2018-08-19T00:00:17.422Z,0.00
2018-08-19T00:01:17.347Z,0.00
2018-08-19T00:03:10.114Z,0.00
2018-08-19T00:04:10.029Z,0.00
2018-08-19T00:06:02.791Z,0.00
2018-08-19T00:07:02.709Z,0.00
2018-08-19T00:08:55.460Z,0.00
2018-08-19T00:09:55.381Z,0.00
2018-08-19T00:11:48.156Z,0.00
2018-08-19T00:12:48.068Z,0.00
2018-08-19T00:14:41.064Z,0.00
2018-08-19T00:15:40.989Z,0.00
2018-08-19T00:17:33.994Z,0.00
2018-08-19T00:18:33.911Z,0.00
2018-08-19T00:20:26.674Z,0.00
2018-08-19T00:21:26.591Z,0.00
2018-08-19T00:23:19.358Z,0.00
2018-08-19T00:24:19.272Z,0.00
2018-08-19T00:26:12.042Z,0.00
2018-08-19T00:27:11.957Z,0.00
2018-08-19T00:29:04.705Z,0.00
2018-08-19T00:30:04.634Z,0.00
2018-08-19T00:31:57.395Z,0.00
2018-08-19T00:32:57.310Z,0.00
2018-08-19T00:34:50.070Z,0.00
2018-08-19T00:35:49.995Z,0.00
2018-08-19T00:37:43.002Z,0.00
2018-08-19T00:38:42.910Z,0.00
2018-08-19T00:40:35.924Z,0.00
2018-08-19T00:41:35.847Z,0.00
2018-08-19T00:43:28.610Z,0.00
2018-08-19T00:44:28.525Z,0.00
2018-08-19T00:46:21.789Z,0.00
2018-08-19T00:47:21.703Z,0.00
2018-08-19T00:49:14.462Z,0.00
2018-08-19T00:50:14.382Z,0.00
2018-08-19T00:52:07.144Z,0.00
2018-08-19T00:53:07.060Z,0.00
2018-08-19T00:54:59.815Z,0.00
2018-08-19T00:55:59.739Z,0.00
2018-08-19T00:57:52.500Z,0.00
2018-08-19T00:58:52.416Z,0.00
2018-08-19T01:00:45.442Z,0.00
2018-08-19T01:01:45.366Z,0.00
2018-08-19T01:03:38.425Z,0.00
2018-08-19T01:04:38.340Z,0.00
2018-08-19T01:06:31.095Z,0.00
2018-08-19T01:07:31.021Z,0.00
2018-08-19T01:09:23.786Z,0.00
2018-08-19T01:10:23.704Z,0.00
2018-08-19T01:12:16.547Z,0.00
2018-08-19T01:13:16.390Z,0.00
2018-08-19T01:15:09.139Z,0.00
2018-08-19T01:16:09.066Z,0.00
2018-08-19T01:18:01.857Z,0.00
2018-08-19T01:19:01.746Z,0.00
2018-08-19T01:20:54.505Z,0.00
2018-08-19T01:21:54.428Z,0.00
2018-08-19T01:23:47.207Z,0.00
2018-08-19T01:24:47.108Z,0.00
2018-08-19T01:26:40.109Z,0.00
2018-08-19T01:27:40.028Z,0.00
2018-08-19T01:29:32.794Z,0.00
2018-08-19T01:30:32.706Z,0.00
2018-08-19T01:32:25.479Z,0.00
2018-08-19T01:33:25.392Z,0.00
2018-08-19T01:35:18.146Z,0.00
2018-08-19T01:36:18.075Z,0.00
2018-08-19T01:38:10.833Z,0.00
2018-08-19T01:39:10.750Z,0.00
2018-08-19T01:41:03.501Z,0.00
2018-08-19T01:42:03.428Z,0.00
2018-08-19T01:43:56.187Z,0.00
2018-08-19T01:44:56.102Z,0.00
2018-08-19T01:46:49.056Z,0.00
2018-08-19T01:47:48.977Z,0.00
2018-08-19T01:49:41.997Z,0.00
2018-08-19T01:50:41.908Z,0.00
2018-08-19T01:52:34.691Z,0.00
2018-08-19T01:53:34.609Z,0.00
2018-08-19T01:55:27.379Z,0.00
2018-08-19T01:56:27.290Z,0.00
2018-08-19T01:58:20.058Z,0.00
2018-08-19T01:59:19.970Z,0.00
2018-08-19T02:01:12.829Z,0.00
2018-08-19T02:02:12.752Z,0.00
2018-08-19T02:04:05.512Z,0.00
2018-08-19T02:05:05.428Z,0.00
2018-08-19T02:06:58.186Z,0.00
2018-08-19T02:07:58.106Z,0.00
2018-08-19T02:09:51.066Z,0.00
2018-08-19T02:10:50.981Z,0.00
2018-08-19T02:12:44.226Z,0.00
2018-08-19T02:13:44.156Z,0.00
2018-08-19T02:15:37.160Z,0.00
2018-08-19T02:16:37.069Z,0.00
2018-08-19T02:18:29.834Z,0.00
2018-08-19T02:19:29.751Z,0.00
2018-08-19T02:21:22.502Z,0.00
2018-08-19T02:22:22.476Z,0.00
2018-08-19T02:24:15.215Z,0.00
2018-08-19T02:25:15.124Z,0.00
2018-08-19T02:27:07.878Z,0.00
2018-08-19T02:28:07.798Z,0.00
2018-08-19T02:30:00.569Z,0.00
2018-08-19T02:31:00.482Z,0.00
2018-08-19T02:32:53.241Z,0.00
2018-08-19T02:33:53.159Z,0.00
2018-08-19T02:35:46.157Z,0.00
2018-08-19T02:36:46.070Z,0.00
2018-08-19T02:38:39.120Z,0.00
2018-08-19T02:39:39.031Z,0.00
2018-08-19T02:41:31.792Z,0.00
2018-08-19T02:42:31.707Z,0.00
2018-08-19T02:44:24.473Z,0.00
2018-08-19T02:45:24.390Z,0.00
2018-08-19T02:47:17.133Z,0.00
2018-08-19T02:48:17.061Z,0.00
2018-08-19T02:50:09.823Z,0.00
2018-08-19T02:51:09.738Z,0.00
2018-08-19T02:53:02.581Z,0.00
2018-08-19T02:54:02.414Z,0.00
2018-08-19T02:55:55.180Z,0.00
2018-08-19T02:56:55.097Z,0.00
2018-08-19T02:58:47.854Z,0.00
2018-08-19T02:59:47.772Z,0.00
2018-08-19T03:01:40.585Z,0.00
2018-08-19T03:02:40.510Z,0.00
2018-08-19T03:04:33.273Z,0.00
2018-08-19T03:05:33.184Z,0.00
2018-08-19T03:07:26.173Z,0.00
2018-08-19T03:08:26.092Z,0.00
2018-08-19T03:10:18.860Z,0.00
2018-08-19T03:11:18.777Z,0.00
2018-08-19T03:13:11.529Z,0.00
2018-08-19T03:14:11.451Z,0.00
2018-08-19T03:16:04.217Z,0.00
2018-08-19T03:17:04.131Z,0.00
2018-08-19T03:18:56.898Z,0.00
2018-08-19T03:19:56.818Z,0.00
2018-08-19T03:21:49.584Z,0.00
2018-08-19T03:22:49.492Z,0.00
2018-08-19T03:24:42.828Z,0.00
2018-08-19T03:25:42.734Z,0.00
2018-08-19T03:27:35.494Z,0.00
2018-08-19T03:28:35.415Z,0.00
2018-08-19T03:30:28.173Z,0.00
2018-08-19T03:31:28.087Z,0.00
2018-08-19T03:33:20.842Z,0.00
2018-08-19T03:34:20.761Z,0.00
2018-08-19T03:36:13.524Z,0.00
2018-08-19T03:37:13.438Z,0.00
2018-08-19T03:39:06.197Z,0.00
2018-08-19T03:40:06.116Z,0.00
2018-08-19T03:41:58.879Z,0.00
2018-08-19T03:42:58.793Z,0.00
2018-08-19T03:44:51.554Z,0.00
2018-08-19T03:45:51.473Z,0.00
2018-08-19T03:47:44.581Z,0.00
2018-08-19T03:48:44.504Z,0.00
2018-08-19T03:50:37.263Z,0.00
2018-08-19T03:51:37.181Z,0.00
2018-08-19T03:53:29.932Z,0.00
2018-08-19T03:54:29.853Z,0.00
2018-08-19T03:56:22.614Z,0.00
2018-08-19T03:57:22.526Z,0.00
2018-08-19T03:59:15.277Z,4.00
2018-08-19T04:00:15.198Z,4.00
2018-08-19T04:02:07.962Z,4.00
2018-08-19T04:03:07.868Z,4.00
2018-08-19T04:05:00.626Z,8.00
2018-08-19T04:06:00.547Z,4.00
2018-08-19T04:07:53.307Z,8.00
2018-08-19T04:08:53.219Z,12.00
2018-08-19T04:10:45.981Z,16.00
2018-08-19T04:11:45.899Z,16.00
2018-08-19T04:13:38.642Z,20.00
2018-08-19T04:14:38.568Z,24.00
2018-08-19T04:16:31.326Z,32.00
2018-08-19T04:17:31.260Z,36.00
2018-08-19T04:19:31.274Z,44.00
2018-08-19T04:22:03.300Z,56.00
2018-08-19T04:23:03.135Z,64.00
2018-08-19T04:24:55.886Z,76.00
2018-08-19T04:25:55.810Z,84.00
2018-08-19T04:27:48.569Z,104.00
2018-08-19T04:28:48.482Z,108.00
2018-08-19T04:30:41.483Z,128.00
2018-08-19T04:31:41.397Z,140.00
2018-08-19T04:33:34.153Z,156.00
2018-08-19T04:34:34.075Z,168.00
2018-08-19T04:36:26.828Z,188.00
2018-08-19T04:37:26.747Z,200.00
2018-08-19T04:39:19.502Z,224.00
2018-08-19T04:40:19.421Z,236.00
2018-08-19T04:42:12.193Z,256.00
2018-08-19T04:43:12.099Z,272.00
2018-08-19T04:45:04.848Z,296.00
2018-08-19T04:46:04.773Z,308.00
2018-08-19T04:47:57.541Z,332.00
2018-08-19T04:48:57.458Z,344.00
2018-08-19T04:50:50.405Z,372.00
2018-08-19T04:51:50.336Z,384.00
2018-08-19T04:53:43.335Z,408.00
2018-08-19T04:54:43.250Z,424.00
2018-08-19T04:56:36.008Z,448.00
2018-08-19T04:57:35.925Z,460.00
2018-08-19T04:59:28.678Z,484.00
2018-08-19T05:00:28.598Z,500.00
2018-08-19T05:02:21.432Z,532.00
2018-08-19T05:03:21.272Z,544.00
2018-08-19T05:05:14.022Z,568.00
2018-08-19T05:06:13.948Z,576.00
2018-08-19T05:08:06.870Z,604.00
2018-08-19T05:09:06.618Z,616.00
2018-08-19T05:10:59.369Z,644.00
2018-08-19T05:11:59.292Z,660.00
2018-08-19T05:13:52.060Z,688.00
2018-08-19T05:14:51.974Z,704.00
2018-08-19T05:16:45.313Z,740.00
2018-08-19T05:17:45.224Z,752.00
2018-08-19T05:19:37.975Z,780.00
2018-08-19T05:20:37.896Z,800.00
2018-08-19T05:22:30.677Z,832.00
2018-08-19T05:23:30.568Z,852.00
2018-08-19T05:25:23.321Z,900.00
2018-08-19T05:26:23.244Z,920.00
2018-08-19T05:28:16.048Z,928.00
2018-08-19T05:29:15.925Z,932.00
2018-08-19T05:31:08.679Z,952.00
2018-08-19T05:32:08.601Z,972.00
2018-08-19T05:34:01.369Z,996.00
2018-08-19T05:35:01.282Z,1004.00
2018-08-19T05:36:54.054Z,1028.00
2018-08-19T05:37:54.009Z,1036.00
2018-08-19T05:39:46.945Z,1060.00
2018-08-19T05:40:46.869Z,1076.00
2018-08-19T05:42:39.825Z,1100.00
2018-08-19T05:43:39.745Z,1108.00
2018-08-19T05:45:32.500Z,1136.00
2018-08-19T05:46:32.422Z,1144.00
2018-08-19T05:48:25.380Z,1172.00
2018-08-19T05:49:25.300Z,1180.00
2018-08-19T05:51:18.062Z,1200.00
2018-08-19T05:52:17.982Z,1208.00
2018-08-19T05:54:10.792Z,1232.00
2018-08-19T05:55:10.657Z,1236.00
2018-08-19T05:57:03.408Z,1256.00
2018-08-19T05:58:03.329Z,1264.00
2018-08-19T05:59:56.091Z,1284.00
2018-08-19T06:00:56.001Z,1300.00
2018-08-19T06:02:48.785Z,1312.00
2018-08-19T06:03:48.696Z,1324.00
2018-08-19T06:05:41.451Z,1344.00
2018-08-19T06:06:41.374Z,1356.00
2018-08-19T06:08:34.133Z,1372.00
2018-08-19T06:09:34.048Z,1384.00
2018-08-19T06:11:26.807Z,1408.00
2018-08-19T06:12:26.729Z,1420.00
2018-08-19T06:14:19.489Z,1448.00
2018-08-19T06:15:19.404Z,1464.00
2018-08-19T06:17:12.155Z,1488.00
2018-08-19T06:18:12.079Z,1500.00
2018-08-19T06:20:04.839Z,1528.00
2018-08-19T06:21:04.758Z,1540.00
2018-08-19T06:22:57.521Z,1580.00
2018-08-19T06:23:57.434Z,1596.00
2018-08-19T06:25:50.188Z,1620.00
2018-08-19T06:26:50.113Z,1644.00
2018-08-19T06:28:42.873Z,1684.00
2018-08-19T06:29:42.791Z,1708.00
2018-08-19T06:31:35.544Z,1740.00
2018-08-19T06:32:35.470Z,1748.00
2018-08-19T06:34:28.298Z,1752.00
2018-08-19T06:35:28.149Z,1760.00
2018-08-19T06:37:21.113Z,1780.00
2018-08-19T06:38:21.030Z,1788.00
2018-08-19T06:40:13.792Z,1812.00
2018-08-19T06:41:13.709Z,1828.00
2018-08-19T06:43:06.526Z,1856.00
2018-08-19T06:44:06.391Z,1872.00
2018-08-19T06:45:59.148Z,1904.00
2018-08-19T06:46:59.067Z,1920.00
2018-08-19T06:48:51.835Z,1944.00
2018-08-19T06:49:51.752Z,1952.00
2018-08-19T06:51:45.905Z,1968.00
2018-08-19T06:52:45.835Z,1988.00
2018-08-19T06:54:39.845Z,2016.00
2018-08-19T06:55:39.735Z,2032.00
2018-08-19T06:57:32.502Z,2056.00
2018-08-19T06:58:32.424Z,2068.00
2018-08-19T07:00:25.186Z,2092.00
2018-08-19T07:01:25.103Z,2100.00
2018-08-19T07:03:18.416Z,2136.00
2018-08-19T07:04:18.274Z,2148.00
2018-08-19T07:06:11.030Z,2168.00
2018-08-19T07:07:10.957Z,2180.00
2018-08-19T07:09:03.720Z,2192.00
2018-08-19T07:10:03.635Z,2204.00
2018-08-19T07:11:56.390Z,2216.00
2018-08-19T07:12:56.315Z,2220.00
2018-08-19T07:14:49.081Z,2248.00
2018-08-19T07:15:48.999Z,2252.00
2018-08-19T07:17:42.063Z,2272.00
2018-08-19T07:18:41.992Z,2272.00
2018-08-19T07:20:34.744Z,2280.00
2018-08-19T07:21:34.672Z,2292.00
2018-08-19T07:23:27.613Z,2312.00
2018-08-19T07:24:27.532Z,2320.00
2018-08-19T07:26:20.310Z,2328.00
2018-08-19T07:27:20.239Z,2340.00
2018-08-19T07:29:13.008Z,2352.00
2018-08-19T07:30:12.922Z,2360.00
2018-08-19T07:32:05.684Z,2392.00
2018-08-19T07:33:05.608Z,2396.00
2018-08-19T07:34:58.373Z,2420.00
2018-08-19T07:35:58.289Z,2436.00
2018-08-19T07:37:51.048Z,2472.00
2018-08-19T07:38:50.971Z,2480.00
2018-08-19T07:40:44.279Z,2492.00
2018-08-19T07:41:44.198Z,2500.00
2018-08-19T07:43:37.217Z,2516.00
2018-08-19T07:44:37.118Z,2520.00
2018-08-19T07:46:29.876Z,2540.00
2018-08-19T07:47:29.797Z,2540.00
2018-08-19T07:49:22.574Z,2540.00
2018-08-19T07:50:22.487Z,2556.00
2018-08-19T07:52:15.444Z,2584.00
2018-08-19T07:53:15.368Z,2608.00
2018-08-19T07:55:08.133Z,2648.00
2018-08-19T07:56:08.052Z,2660.00
2018-08-19T07:58:00.805Z,2684.00
2018-08-19T07:59:00.731Z,2696.00
2018-08-19T08:00:53.500Z,2728.00
2018-08-19T08:01:53.413Z,2740.00
2018-08-19T08:03:46.422Z,2756.00
2018-08-19T08:04:46.346Z,2756.00
2018-08-19T08:06:39.115Z,2784.00
2018-08-19T08:07:39.035Z,2876.00
2018-08-19T08:09:31.816Z,3236.00
2018-08-19T08:10:31.720Z,3616.00
2018-08-19T08:12:24.497Z,2844.00
2018-08-19T08:13:24.409Z,2852.00
2018-08-19T08:15:17.184Z,3188.00
2018-08-19T08:16:17.097Z,5992.00
2018-08-19T08:18:09.854Z,3040.00
2018-08-19T08:19:09.780Z,2968.00
2018-08-19T08:21:02.756Z,3036.00
2018-08-19T08:22:02.670Z,3080.00
2018-08-19T08:23:55.430Z,3072.00
2018-08-19T08:24:55.356Z,3100.00
2018-08-19T08:26:48.122Z,3424.00
2018-08-19T08:27:48.041Z,3220.00
2018-08-19T08:29:40.824Z,3504.00
2018-08-19T08:30:40.752Z,3272.00
2018-08-19T08:32:33.520Z,3292.00
2018-08-19T08:33:33.437Z,3316.00
2018-08-19T08:35:26.205Z,3716.00
2018-08-19T08:36:26.126Z,6044.00
2018-08-19T08:38:18.893Z,4284.00
2018-08-19T08:39:18.807Z,3648.00
2018-08-19T08:41:11.583Z,3720.00
2018-08-19T08:42:11.499Z,3488.00
2018-08-19T08:44:04.265Z,3328.00
2018-08-19T08:45:04.188Z,3304.00
2018-08-19T08:46:56.962Z,3400.00
2018-08-19T08:47:56.910Z,3784.00
2018-08-19T08:49:49.643Z,4760.00
2018-08-19T08:50:49.574Z,3852.00
2018-08-19T08:52:42.339Z,5056.00
2018-08-19T08:53:42.262Z,3808.00
2018-08-19T08:55:35.042Z,5996.00
2018-08-19T08:56:34.961Z,12700.00
2018-08-19T08:58:27.721Z,38400.00
2018-08-19T08:59:27.649Z,45952.00
2018-08-19T09:01:20.420Z,23680.00
2018-08-19T09:02:20.340Z,17056.00
2018-08-19T09:04:13.103Z,18240.00
2018-08-19T09:05:13.030Z,6592.00
2018-08-19T09:07:05.800Z,8288.00
2018-08-19T09:08:05.723Z,4976.00
2018-08-19T09:09:58.485Z,7172.00
2018-08-19T09:10:58.414Z,16704.00
2018-08-19T09:12:51.194Z,30496.00
2018-08-19T09:13:51.115Z,18656.00
2018-08-19T09:15:44.189Z,14212.00
2018-08-19T09:16:44.114Z,14448.00
2018-08-19T09:18:36.893Z,25216.00
2018-08-19T09:19:36.814Z,23680.00
2018-08-19T09:21:29.595Z,44416.00
2018-08-19T09:22:29.513Z,61792.00
2018-08-19T09:24:22.284Z,61248.00
2018-08-19T09:25:22.213Z,62240.00
2018-08-19T09:27:14.987Z,61184.00
2018-08-19T09:28:14.906Z,60576.00
2018-08-19T09:30:07.677Z,60032.00
2018-08-19T09:31:07.609Z,59840.00
2018-08-19T09:33:00.449Z,59328.00
2018-08-19T09:34:00.313Z,58464.00
2018-08-19T09:35:53.084Z,59552.00
2018-08-19T09:36:53.015Z,59264.00
2018-08-19T09:38:45.814Z,59232.00
2018-08-19T09:39:45.733Z,58368.00
2018-08-19T09:41:38.754Z,58432.00
2018-08-19T09:42:38.681Z,58240.00
2018-08-19T09:44:31.692Z,60224.00
2018-08-19T09:45:31.628Z,60448.00
2018-08-19T09:47:24.415Z,59552.00
2018-08-19T09:48:24.349Z,59328.00
2018-08-19T09:50:17.126Z,61024.00
2018-08-19T09:51:17.064Z,61888.00
2018-08-19T09:53:09.852Z,48000.00
2018-08-19T09:54:09.816Z,27616.00
2018-08-19T09:56:02.561Z,23616.00
2018-08-19T09:57:02.499Z,21760.00
2018-08-19T09:58:55.284Z,35264.00
2018-08-19T09:59:55.213Z,54112.00
2018-08-19T10:01:48.035Z,59808.00
2018-08-19T10:02:47.963Z,64128.00
2018-08-19T10:04:40.745Z,37728.00
2018-08-19T10:05:40.678Z,58560.00
2018-08-19T10:07:33.714Z,63040.00
2018-08-19T10:08:33.640Z,59776.00
2018-08-19T10:10:26.427Z,28544.00
2018-08-19T10:11:26.364Z,33088.00
2018-08-19T10:13:19.159Z,59488.00
2018-08-19T10:14:19.082Z,64224.00
2018-08-19T10:16:11.862Z,60704.00
2018-08-19T10:17:11.801Z,61856.00
2018-08-19T10:19:04.588Z,49504.00
2018-08-19T10:20:04.514Z,63936.00
2018-08-19T10:21:57.309Z,63520.00
2018-08-19T10:22:57.235Z,63456.00
2018-08-19T10:24:50.015Z,60448.00
2018-08-19T10:25:49.947Z,63616.00
2018-08-19T10:27:43.006Z,44768.00
2018-08-19T10:28:42.937Z,20416.00
2018-08-19T10:30:35.718Z,12616.00
2018-08-19T10:31:35.654Z,9080.00
2018-08-19T10:33:28.464Z,7736.00
2018-08-19T10:34:28.391Z,5996.00
2018-08-19T10:36:21.176Z,5988.00
2018-08-19T10:37:21.110Z,5756.00
2018-08-19T10:39:13.976Z,5620.00
2018-08-19T10:40:13.830Z,5584.00
2018-08-19T10:42:06.629Z,5604.00
2018-08-19T10:43:06.546Z,5644.00
2018-08-19T10:44:59.516Z,5552.00
2018-08-19T10:45:59.452Z,5528.00
2018-08-19T10:47:52.232Z,5640.00
2018-08-19T10:48:52.154Z,5664.00
2018-08-19T10:50:44.928Z,5640.00
2018-08-19T10:51:44.857Z,5592.00
2018-08-19T10:53:37.872Z,5636.00
2018-08-19T10:54:37.800Z,5596.00
2018-08-19T10:56:30.795Z,5516.00
2018-08-19T10:57:30.728Z,5612.00
2018-08-19T10:59:23.506Z,5568.00
2018-08-19T11:00:23.427Z,5532.00
2018-08-19T11:02:16.192Z,5612.00
2018-08-19T11:03:16.126Z,5604.00
2018-08-19T11:05:08.902Z,5488.00
2018-08-19T11:06:08.820Z,5688.00
2018-08-19T11:08:01.684Z,5572.00
2018-08-19T11:09:01.517Z,6132.00
2018-08-19T11:10:54.527Z,5660.00
2018-08-19T11:11:54.454Z,5696.00
2018-08-19T11:13:47.495Z,8224.00
2018-08-19T11:14:47.414Z,5752.00
2018-08-19T11:16:40.183Z,5704.00
2018-08-19T11:17:40.113Z,5668.00
2018-08-19T11:19:33.126Z,5644.00
2018-08-19T11:20:33.047Z,5972.00
2018-08-19T11:22:25.823Z,11212.00
2018-08-19T11:23:25.750Z,6748.00
2018-08-19T11:25:18.533Z,10452.00
2018-08-19T11:26:18.452Z,8712.00
2018-08-19T11:28:11.219Z,8804.00
2018-08-19T11:29:11.147Z,13272.00
2018-08-19T11:31:03.977Z,7392.00
2018-08-19T11:32:03.856Z,6696.00
2018-08-19T11:33:56.637Z,6180.00
2018-08-19T11:34:56.549Z,6024.00
2018-08-19T11:36:49.516Z,8800.00
2018-08-19T11:37:49.446Z,13888.00
2018-08-19T11:39:43.082Z,11300.00
2018-08-19T11:40:43.003Z,6404.00
2018-08-19T11:42:35.883Z,6296.00
2018-08-19T11:43:35.815Z,6464.00
2018-08-19T11:45:28.589Z,8572.00
2018-08-19T11:46:28.516Z,6460.00
2018-08-19T11:48:21.285Z,6068.00
2018-08-19T11:49:21.213Z,6396.00
2018-08-19T11:51:13.998Z,7364.00
2018-08-19T11:52:13.915Z,6000.00
2018-08-19T11:54:06.702Z,6472.00
2018-08-19T11:55:06.609Z,5992.00
2018-08-19T11:56:59.388Z,6304.00
2018-08-19T11:57:59.308Z,5488.00
2018-08-19T11:59:52.080Z,5544.00
2018-08-19T12:00:52.008Z,5760.00
2018-08-19T12:02:45.009Z,8432.00
2018-08-19T12:03:44.938Z,7744.00
2018-08-19T12:05:37.978Z,5312.00
2018-08-19T12:06:37.878Z,5288.00
2018-08-19T12:08:30.646Z,5260.00
2018-08-19T12:09:30.591Z,6296.00
2018-08-19T12:11:23.346Z,5804.00
2018-08-19T12:12:23.270Z,12436.00
2018-08-19T12:14:16.031Z,22464.00
2018-08-19T12:15:15.964Z,12660.00
2018-08-19T12:17:08.778Z,7996.00
2018-08-19T12:18:08.666Z,6120.00
2018-08-19T12:20:01.428Z,12276.00
2018-08-19T12:21:01.359Z,4940.00
2018-08-19T12:22:54.130Z,5144.00
2018-08-19T12:23:54.049Z,5140.00
2018-08-19T12:25:47.401Z,5236.00
2018-08-19T12:26:47.315Z,5192.00
2018-08-19T12:28:40.327Z,7228.00
2018-08-19T12:29:40.255Z,6188.00
2018-08-19T12:31:33.098Z,20096.00
2018-08-19T12:32:33.014Z,10396.00
2018-08-19T12:34:25.787Z,5168.00
2018-08-19T12:35:25.716Z,5180.00
2018-08-19T12:37:18.633Z,5268.00
2018-08-19T12:38:18.414Z,5260.00
2018-08-19T12:40:11.183Z,7224.00
2018-08-19T12:41:11.116Z,8272.00
2018-08-19T12:43:03.932Z,5312.00
2018-08-19T12:44:03.833Z,5460.00
2018-08-19T12:45:56.789Z,5260.00
2018-08-19T12:46:56.711Z,5276.00
2018-08-19T12:48:49.489Z,5324.00
2018-08-19T12:49:49.419Z,5344.00
2018-08-19T12:51:42.740Z,5352.00
2018-08-19T12:52:42.664Z,5356.00
2018-08-19T12:54:35.666Z,5472.00
2018-08-19T12:55:35.595Z,5548.00
2018-08-19T12:57:28.371Z,5540.00
2018-08-19T12:58:28.294Z,5604.00
2018-08-19T13:00:21.062Z,5672.00
2018-08-19T13:01:20.986Z,5620.00
2018-08-19T13:03:13.765Z,5692.00
2018-08-19T13:04:13.685Z,5736.00
2018-08-19T13:06:06.626Z,5740.00
2018-08-19T13:07:06.484Z,6064.00
2018-08-19T13:08:59.256Z,5960.00
2018-08-19T13:09:59.183Z,8528.00
2018-08-19T13:11:51.962Z,7636.00
2018-08-19T13:12:51.885Z,8280.00
2018-08-19T13:14:44.653Z,7556.00
2018-08-19T13:15:44.590Z,6296.00
2018-08-19T13:17:37.441Z,8832.00
2018-08-19T13:18:37.365Z,14284.00
2018-08-19T13:20:30.133Z,13044.00
2018-08-19T13:21:30.064Z,19968.00
2018-08-19T13:23:22.843Z,31680.00
2018-08-19T13:24:22.761Z,12920.00
2018-08-19T13:26:15.532Z,10088.00
2018-08-19T13:27:15.462Z,9584.00
2018-08-19T13:29:08.238Z,9120.00
2018-08-19T13:30:08.159Z,15768.00
2018-08-19T13:32:00.930Z,31328.00
2018-08-19T13:33:00.866Z,41184.00
2018-08-19T13:34:53.641Z,24256.00
2018-08-19T13:35:53.566Z,12304.00
2018-08-19T13:37:46.345Z,7396.00
2018-08-19T13:38:46.269Z,13416.00
2018-08-19T13:40:39.151Z,7260.00
2018-08-19T13:41:39.084Z,7664.00
2018-08-19T13:43:32.114Z,9268.00
2018-08-19T13:44:32.031Z,8988.00
2018-08-19T13:46:24.803Z,11368.00
2018-08-19T13:47:24.732Z,8580.00
2018-08-19T13:49:17.513Z,8288.00
2018-08-19T13:50:17.443Z,7764.00
2018-08-19T13:52:10.209Z,7768.00
2018-08-19T13:53:10.143Z,7752.00
2018-08-19T13:55:02.940Z,7736.00
2018-08-19T13:56:02.856Z,7728.00
2018-08-19T13:57:55.626Z,16544.00
2018-08-19T13:58:55.553Z,9912.00
2018-08-19T14:00:48.454Z,7484.00
2018-08-19T14:01:48.374Z,7444.00
2018-08-19T14:03:41.391Z,7712.00
2018-08-19T14:04:41.327Z,8400.00
2018-08-19T14:06:34.345Z,7784.00
2018-08-19T14:07:34.265Z,9092.00
2018-08-19T14:09:27.048Z,7896.00
2018-08-19T14:10:26.963Z,9136.00
2018-08-19T14:12:19.774Z,14680.00
2018-08-19T14:13:19.668Z,16192.00
2018-08-19T14:15:12.448Z,25888.00
2018-08-19T14:16:12.380Z,25696.00
2018-08-19T14:18:05.353Z,49856.00
2018-08-19T14:19:05.278Z,52224.00
2018-08-19T14:20:58.075Z,52576.00
2018-08-19T14:21:57.997Z,52128.00
2018-08-19T14:23:50.771Z,47776.00
2018-08-19T14:24:50.704Z,46560.00
2018-08-19T14:26:43.729Z,44480.00
2018-08-19T14:27:43.653Z,43360.00
2018-08-19T14:29:36.680Z,40416.00
2018-08-19T14:30:36.728Z,46560.00
2018-08-19T14:32:29.702Z,52000.00
2018-08-19T14:33:29.626Z,50816.00
2018-08-19T14:35:22.533Z,51456.00
2018-08-19T14:36:22.466Z,51296.00
2018-08-19T14:38:15.253Z,53984.00
2018-08-19T14:39:15.192Z,54656.00
2018-08-19T14:41:07.988Z,55392.00
2018-08-19T14:42:07.916Z,54976.00
2018-08-19T14:44:00.697Z,55360.00
2018-08-19T14:45:00.635Z,55872.00
2018-08-19T14:46:53.457Z,54624.00
2018-08-19T14:47:53.388Z,51680.00
2018-08-19T14:49:46.406Z,49600.00
2018-08-19T14:50:46.344Z,48160.00
2018-08-19T14:52:39.377Z,46880.00
2018-08-19T14:53:39.323Z,45824.00
2018-08-19T14:55:32.348Z,45088.00
2018-08-19T14:56:32.273Z,40192.00
2018-08-19T14:58:25.250Z,31008.00
2018-08-19T14:59:25.194Z,24000.00
2018-08-19T15:01:17.991Z,20288.00
2018-08-19T15:02:17.927Z,19840.00
2018-08-19T15:04:10.719Z,19296.00
2018-08-19T15:05:10.656Z,19200.00
2018-08-19T15:07:03.452Z,18880.00
2018-08-19T15:08:03.386Z,18720.00
2018-08-19T15:09:56.359Z,18368.00
2018-08-19T15:10:56.115Z,18336.00
2018-08-19T15:12:48.969Z,18560.00
2018-08-19T15:13:48.903Z,18816.00
2018-08-19T15:15:41.935Z,19968.00
2018-08-19T15:16:41.887Z,20544.00
2018-08-19T15:18:34.940Z,23520.00
2018-08-19T15:19:34.867Z,26912.00
2018-08-19T15:21:27.651Z,34016.00
2018-08-19T15:22:27.593Z,38272.00
2018-08-19T15:24:20.386Z,36288.00
2018-08-19T15:25:20.322Z,33440.00
2018-08-19T15:27:13.118Z,28224.00
2018-08-19T15:28:13.049Z,29472.00
2018-08-19T15:30:05.844Z,31616.00
2018-08-19T15:31:05.779Z,29536.00
2018-08-19T15:32:59.000Z,30144.00
2018-08-19T15:33:58.520Z,28832.00
2018-08-19T15:35:51.316Z,26048.00
2018-08-19T15:36:51.262Z,24864.00
2018-08-19T15:38:44.612Z,24416.00
2018-08-19T15:39:44.552Z,26016.00
2018-08-19T15:41:37.333Z,24320.00
2018-08-19T15:42:37.271Z,23968.00
2018-08-19T15:44:30.073Z,25088.00
2018-08-19T15:45:30.006Z,25792.00
2018-08-19T15:47:22.810Z,24608.00
2018-08-19T15:48:22.744Z,25440.00
2018-08-19T15:50:15.531Z,27296.00
2018-08-19T15:51:15.462Z,27328.00
2018-08-19T15:53:08.265Z,25856.00
2018-08-19T15:54:08.197Z,28672.00
2018-08-19T15:56:00.987Z,32320.00
2018-08-19T15:57:00.925Z,30528.00
2018-08-19T15:58:53.723Z,30176.00
2018-08-19T15:59:53.649Z,32672.00
2018-08-19T16:01:46.432Z,39936.00
2018-08-19T16:02:46.374Z,45760.00
2018-08-19T16:04:39.400Z,53920.00
2018-08-19T16:05:39.334Z,61024.00
2018-08-19T16:07:32.135Z,51264.00
2018-08-19T16:08:32.065Z,44736.00
2018-08-19T16:10:24.848Z,36512.00
2018-08-19T16:11:24.790Z,33728.00
2018-08-19T16:13:17.587Z,28864.00
2018-08-19T16:14:17.513Z,26176.00
2018-08-19T16:16:10.306Z,29216.00
2018-08-19T16:17:10.245Z,27648.00
2018-08-19T16:19:03.177Z,16896.00
2018-08-19T16:20:02.972Z,14852.00
2018-08-19T16:21:55.957Z,12528.00
2018-08-19T16:22:55.900Z,11764.00
2018-08-19T16:24:48.934Z,10980.00
2018-08-19T16:25:48.868Z,10544.00
2018-08-19T16:27:41.672Z,9800.00
2018-08-19T16:28:41.588Z,9472.00
2018-08-19T16:30:34.381Z,9148.00
2018-08-19T16:31:34.316Z,8952.00
2018-08-19T16:33:27.159Z,8668.00
2018-08-19T16:34:27.040Z,8436.00
2018-08-19T16:36:19.834Z,8156.00
2018-08-19T16:37:19.798Z,7980.00
2018-08-19T16:39:12.631Z,7796.00
2018-08-19T16:40:12.494Z,7676.00
2018-08-19T16:42:05.480Z,7576.00
2018-08-19T16:43:05.411Z,7464.00
2018-08-19T16:44:58.210Z,7196.00
2018-08-19T16:45:58.138Z,7104.00
2018-08-19T16:47:50.925Z,6892.00
2018-08-19T16:48:50.864Z,6800.00
2018-08-19T16:50:44.497Z,6708.00
2018-08-19T16:51:44.341Z,6600.00
2018-08-19T16:53:37.132Z,6460.00
2018-08-19T16:54:37.068Z,6312.00
2018-08-19T16:56:29.848Z,6076.00
2018-08-19T16:57:29.909Z,6004.00
2018-08-19T16:59:22.580Z,5804.00
2018-08-19T17:00:22.511Z,5636.00
2018-08-19T17:02:15.295Z,5316.00
2018-08-19T17:03:15.235Z,5108.00
2018-08-19T17:05:08.026Z,4688.00
2018-08-19T17:06:07.953Z,4224.00
2018-08-19T17:08:00.735Z,2676.00
2018-08-19T17:09:00.678Z,2272.00
2018-08-19T17:10:53.484Z,2172.00
2018-08-19T17:11:53.402Z,2136.00
2018-08-19T17:13:46.451Z,2084.00
2018-08-19T17:14:46.360Z,2052.00
2018-08-19T17:16:39.702Z,2056.00
2018-08-19T17:17:39.636Z,2036.00
2018-08-19T17:19:32.420Z,1956.00
2018-08-19T17:20:32.350Z,1924.00
2018-08-19T17:22:25.142Z,1892.00
2018-08-19T17:23:25.064Z,1872.00
2018-08-19T17:25:17.847Z,1828.00
2018-08-19T17:26:17.870Z,1812.00
2018-08-19T17:28:10.546Z,1740.00
2018-08-19T17:29:10.484Z,1696.00
2018-08-19T17:31:03.279Z,1624.00
2018-08-19T17:32:03.193Z,1604.00
2018-08-19T17:33:56.176Z,1544.00
2018-08-19T17:34:56.113Z,1488.00
2018-08-19T17:36:49.158Z,1420.00
2018-08-19T17:37:49.077Z,1380.00
2018-08-19T17:39:42.170Z,1316.00
2018-08-19T17:40:42.044Z,1268.00
2018-08-19T17:42:34.803Z,1212.00
2018-08-19T17:43:34.733Z,1188.00